Time;durP1;ratioP1;P1;durP2;ratioP2;P2;SDS_P1;SDS_P2;PMS_P1;PMS_P2;Temp;Humidity;BMP_temperature;BMP_pressure;BME280_temperature;BME280_humidity;BME280_pressure;Samples;Min_cycle;Max_cycle;Signal;HPM_P1;HPM_P2
2023/01/30 06:02:13;;;;;;;;;21.00;17.33;;;;;8.75;71.52;-19444.88;5042647;23;45755;-93
2023/01/30 06:04:38;;;;;;;;;17.00;17.00;;;;;8.88;71.41;-19448.25;4900211;23;45838;-84
2023/01/30 06:07:04;;;;;;;;;20.00;16.00;;;;;8.70;71.35;-19443.50;4880172;29;45541;-86
2023/01/30 06:09:29;;;;;;;;;18.67;16.67;;;;;8.65;71.72;-19444.22;4897222;29;45994;-85
2023/01/30 06:11:54;;;;;;;;;16.33;16.33;;;;;8.98;71.55;-19452.88;4896756;28;45729;-86
2023/01/30 06:14:20;;;;;;;;;19.33;16.00;;;;;9.01;71.73;-19453.56;4896288;29;45664;-85
2023/01/30 06:16:45;;;;;;;;;12.33;12.00;;;;;9.06;71.62;-19454.91;4897857;29;45457;-85
2023/01/30 06:19:10;;;;;;;;;18.00;15.67;;;;;9.27;71.07;-19460.59;4897289;29;45484;-86
2023/01/30 06:21:36;;;;;;;;;14.00;14.00;;;;;9.33;70.95;-19462.06;4894975;29;45434;-85
2023/01/30 06:24:02;;;;;;;;;19.33;16.00;;;;;9.40;70.65;-19463.97;4880191;29;45404;-86
2023/01/30 06:26:27;;;;;;;;;13.67;12.00;;;;;9.35;70.61;-19462.59;4896628;28;45396;-86
2023/01/30 06:28:53;;;;;;;;;16.00;15.00;;;;;9.41;70.75;-19464.09;4896474;29;45666;-85
2023/01/30 06:31:18;;;;;;;;;13.67;11.33;;;;;9.50;70.77;-19464.72;4896926;29;45394;-86
2023/01/30 06:33:43;;;;;;;;;14.67;14.00;;;;;9.28;70.62;-19460.84;4891291;29;45482;-86
2023/01/30 06:36:09;;;;;;;;;17.00;15.67;;;;;9.32;70.78;-19459.88;4895490;29;45487;-85
2023/01/30 06:38:34;;;;;;;;;19.00;17.33;;;;;9.40;70.63;-19463.97;4879147;29;47748;-85
2023/01/30 06:41:00;;;;;;;;;15.33;15.33;;;;;9.36;70.39;-19460.94;4896375;29;45434;-85
2023/01/30 06:43:25;;;;;;;;;19.67;17.33;;;;;9.55;70.64;-19465.81;4895564;28;46019;-85
2023/01/30 06:45:50;;;;;;;;;20.67;17.33;;;;;9.52;70.69;-19465.13;4879603;28;45888;-87
2023/01/30 06:48:16;;;;;;;;;20.67;14.00;;;;;9.24;70.95;-19459.78;4897065;28;45899;-87
2023/01/30 06:50:41;;;;;;;;;16.00;14.00;;;;;9.37;70.80;-19463.00;4865093;29;45503;-87
2023/01/30 06:53:07;;;;;;;;;20.00;16.00;;;;;9.60;70.64;-19467.28;4863038;29;45745;-88
2023/01/30 06:55:34;;;;;;;;;20.00;18.00;;;;;9.61;70.31;-19467.44;4880857;29;45651;-86
2023/01/30 06:58:11;;;;;;;;;17.33;14.00;;;;;9.63;70.84;-19468.09;4896174;29;46962;-85
2023/01/30 07:00:38;;;;;;;;;16.00;16.00;;;;;9.63;70.55;-19468.09;4897422;29;45430;-84
2023/01/30 07:03:04;;;;;;;;;17.00;15.00;;;;;9.51;70.52;-19465.00;4897871;29;45440;-84
2023/01/30 07:05:30;;;;;;;;;21.67;20.67;;;;;9.64;70.54;-19468.22;4879441;29;45828;-87
2023/01/30 07:07:56;;;;;;;;;22.33;21.00;;;;;9.50;70.80;-19466.53;4877663;29;45504;-87
2023/01/30 07:10:22;;;;;;;;;15.33;15.33;;;;;9.53;71.23;-19467.34;4879333;29;45842;-85
2023/01/30 07:12:48;;;;;;;;;16.00;14.67;;;;;9.38;71.00;-19463.41;4877474;29;45664;-80
2023/01/30 07:15:13;;;;;;;;;19.33;17.00;;;;;9.20;71.41;-19458.56;4878020;29;45923;-82
2023/01/30 07:17:40;;;;;;;;;19.67;15.67;;;;;9.73;70.60;-19472.59;4861725;29;47387;-82
2023/01/30 07:20:06;;;;;;;;;17.67;16.33;;;;;9.42;71.50;-19464.50;4877529;29;45751;-82
2023/01/30 07:22:32;;;;;;;;;15.33;14.67;;;;;9.39;71.84;-19463.56;4877636;29;45961;-84
2023/01/30 07:24:57;;;;;;;;;15.33;13.33;;;;;9.37;71.61;-19463.00;4877253;29;45629;-84
2023/01/30 07:27:22;;;;;;;;;16.67;15.33;;;;;9.40;71.66;-19463.81;4858507;29;47429;-83
2023/01/30 07:29:48;;;;;;;;;19.67;18.00;;;;;8.91;71.86;-19450.84;4860033;29;46347;-83
2023/01/30 07:32:15;;;;;;;;;21.33;16.67;;;;;9.33;71.81;-19461.94;4870793;29;45556;-86
2023/01/30 07:34:41;;;;;;;;;18.33;12.33;;;;;9.44;71.89;-19465.03;4871015;29;45884;-84
2023/01/30 07:37:06;;;;;;;;;17.67;16.67;;;;;9.17;72.24;-19457.88;4854101;29;48330;-84
2023/01/30 07:39:32;;;;;;;;;19.33;17.00;;;;;9.31;72.69;-19461.53;4875027;29;45802;-85
2023/01/30 07:41:59;;;;;;;;;16.00;15.33;;;;;9.25;72.72;-19459.91;4877452;29;45548;-92
2023/01/30 07:44:25;;;;;;;;;15.33;12.33;;;;;9.40;73.16;-19463.97;4875596;29;47043;-84
2023/01/30 07:46:50;;;;;;;;;15.00;13.33;;;;;9.29;73.12;-19461.13;4857414;29;47183;-85
2023/01/30 07:49:15;;;;;;;;;22.00;17.67;;;;;9.31;73.40;-19461.53;4879717;29;45553;-84
2023/01/30 07:51:40;;;;;;;;;18.67;15.67;;;;;9.36;73.24;-19462.88;4876139;29;45624;-84
2023/01/30 07:54:06;;;;;;;;;15.67;14.67;;;;;9.35;73.69;-19462.47;4874660;29;45717;-85
2023/01/30 07:56:31;;;;;;;;;20.33;17.00;;;;;9.33;73.80;-19462.06;4880837;29;46122;-84
2023/01/30 07:58:56;;;;;;;;;21.67;17.33;;;;;9.33;73.70;-19461.94;4880171;29;45818;-84
2023/01/30 11:00:09;;;;;;;;;16.50;13.00;;;;;10.75;74.24;-19499.59;5993174;23;46503;31
2023/01/30 11:02:59;;;;;;;;;12.00;12.00;;;;;10.82;74.09;-19501.22;4874582;23;45898;-86
2023/01/30 11:05:38;;;;;;;;;12.67;12.67;;;;;10.56;74.44;-19494.59;4906834;28;45491;-87
2023/01/30 11:08:11;;;;;;;;;11.33;11.33;;;;;10.77;74.24;-19500.13;4902134;28;45705;-86
2023/01/30 11:10:36;;;;;;;;;11.00;11.00;;;;;10.89;73.94;-19503.09;4902138;28;45396;-86
2023/01/30 11:13:32;;;;;;;;;11.33;10.33;;;;;10.95;73.98;-19504.72;4884241;29;45670;-87
2023/01/30 11:16:03;;;;;;;;;11.33;11.33;;;;;10.69;73.82;-19497.84;4892559;29;45425;-87
2023/01/30 11:18:29;;;;;;;;;13.00;11.00;;;;;10.94;74.11;-19504.59;4901095;29;45683;-87
2023/01/30 11:21:07;;;;;;;;;11.67;8.33;;;;;10.90;73.72;-19503.50;4900223;29;45492;-88
2023/01/30 11:23:41;;;;;;;;;10.00;10.00;;;;;10.82;73.97;-19501.34;4897623;29;48167;-88
2023/01/30 11:26:18;;;;;;;;;16.67;12.67;;;;;10.70;73.54;-19498.09;4900034;29;45812;-88
2023/01/30 11:28:45;;;;;;;;;9.33;8.00;;;;;11.07;73.63;-19507.94;4900693;28;45448;-88
2023/01/30 11:31:19;;;;;;;;;16.00;13.00;;;;;11.07;73.71;-19507.94;4900659;29;45326;-89
2023/01/30 11:33:57;;;;;;;;;9.67;9.67;;;;;10.87;73.53;-19502.56;4900801;28;45559;-87
2023/01/30 11:36:26;;;;;;;;;8.00;8.00;;;;;11.23;73.89;-19512.00;4901542;28;45429;-89
2023/01/30 11:39:02;;;;;;;;;9.00;8.00;;;;;10.89;73.60;-19503.09;4901788;29;45436;-86
2023/01/30 11:41:29;;;;;;;;;11.33;9.00;;;;;11.10;73.54;-19508.63;4900604;29;45542;-87
2023/01/30 11:44:02;;;;;;;;;9.00;7.00;;;;;11.38;73.52;-19516.19;4914058;28;47876;-86
2023/01/30 11:46:32;;;;;;;;;10.33;9.33;;;;;11.39;73.45;-19516.44;4913157;28;45439;-92
2023/01/30 11:49:04;;;;;;;;;9.00;7.00;;;;;11.58;73.26;-19521.44;4903134;28;45415;-93
2023/01/30 11:51:33;;;;;;;;;9.67;9.00;;;;;11.45;72.69;-19517.94;4901932;29;45566;-93
2023/01/30 11:54:03;;;;;;;;;10.67;9.33;;;;;11.39;72.95;-19516.44;4886267;29;47835;-92
2023/01/30 11:56:38;;;;;;;;;14.00;11.00;;;;;11.51;73.57;-19519.53;4881929;29;45817;-92
2023/01/30 11:59:19;;;;;;;;;10.33;10.00;;;;;11.53;73.35;-19519.94;4884872;29;45385;-93
2023/01/30 12:01:45;;;;;;;;;9.00;8.00;;;;;11.16;73.19;-19510.38;4884534;29;45408;-93
2023/01/30 12:04:11;;;;;;;;;11.33;9.00;;;;;11.36;73.02;-19515.63;4901201;29;48148;-94
2023/01/30 12:06:40;;;;;;;;;10.67;8.00;;;;;11.45;73.16;-19517.94;4903528;29;45452;-94
2023/01/30 12:09:35;;;;;;;;;7.00;7.00;;;;;11.46;72.86;-19518.19;4902992;28;45503;-94
2023/01/30 12:12:01;;;;;;;;;11.67;9.00;;;;;11.63;73.29;-19522.66;4903291;28;45387;-94
2023/01/30 12:14:41;;;;;;;;;7.00;7.00;;;;;11.27;73.38;-19513.22;4901730;29;48547;-93
2023/01/30 12:17:49;;;;;;;;;11.00;11.00;;;;;11.53;73.04;-19520.09;4901819;29;45423;-93
2023/01/30 12:20:29;;;;;;;;;12.33;10.33;;;;;11.61;73.22;-19522.25;4844999;29;45400;-93
2023/01/30 12:23:20;;;;;;;;;7.33;7.33;;;;;11.66;73.34;-19523.31;4845472;29;45513;-94
2023/01/30 12:26:09;;;;;;;;;9.00;9.00;;;;;11.73;73.34;-19525.34;4830513;29;47194;-93
2023/01/30 12:28:47;;;;;;;;;6.33;6.33;;;;;11.69;73.10;-19524.25;4829709;29;45496;-94
2023/01/30 12:31:23;;;;;;;;;7.00;7.00;;;;;11.65;73.20;-19523.19;4843518;29;45511;-95
2023/01/30 12:33:49;;;;;;;;;8.67;8.67;;;;;11.79;73.23;-19526.97;4828857;29;45380;-92
2023/01/30 12:36:46;;;;;;;;;11.33;9.00;;;;;11.73;73.61;-19525.19;4827665;29;47638;-93
2023/01/30 12:40:09;;;;;;;;;8.00;8.00;;;;;11.83;73.44;-19527.91;4842840;29;46055;-93
2023/01/30 12:42:53;;;;;;;;;7.00;7.00;;;;;11.88;73.57;-19529.13;4792369;29;46113;-91
2023/01/30 12:45:28;;;;;;;;;9.33;8.00;;;;;11.62;73.58;-19522.50;4788806;29;45649;-93
2023/01/30 12:48:11;;;;;;;;;8.33;7.33;;;;;11.91;73.21;-19530.06;4788579;29;45497;-92
2023/01/30 12:51:01;;;;;;;;;9.33;8.00;;;;;11.93;73.55;-19530.47;4794658;29;45884;-92
2023/01/30 12:53:54;;;;;;;;;9.67;9.67;;;;;11.99;73.36;-19532.09;4791766;29;45402;-93
2023/01/30 12:56:37;;;;;;;;;8.67;8.67;;;;;11.90;73.63;-19529.78;4792775;29;45384;-96
2023/01/30 12:59:24;;;;;;;;;9.67;8.67;;;;;11.67;73.67;-19523.59;4792405;29;47668;-94
2023/01/30 14:06:09;;;;;;;;;22.00;18.67;;;;;12.53;72.94;-19546.22;5465002;23;46429;-87
2023/01/30 14:08:44;;;;;;;;;11.00;11.00;;;;;12.41;73.31;-19543.25;4886779;29;45806;-91
2023/01/30 14:11:30;;;;;;;;;14.00;12.00;;;;;12.56;72.84;-19547.16;4897265;23;45538;-86
2023/01/30 14:14:14;;;;;;;;;13.67;13.67;;;;;12.54;73.22;-19546.63;4861098;29;45840;-87
2023/01/30 14:16:42;;;;;;;;;8.67;8.67;;;;;12.46;73.20;-19544.47;4872086;29;45773;-87
2023/01/30 14:19:41;;;;;;;;;11.00;9.33;;;;;12.10;73.23;-19535.03;4877241;29;46331;-87
2023/01/30 14:22:23;;;;;;;;;11.00;10.00;;;;;12.60;73.07;-19548.09;4878192;29;46123;-87
2023/01/30 14:25:26;;;;;;;;;8.00;6.00;;;;;12.59;72.95;-19547.97;4878005;29;45707;-86
2023/01/30 14:28:12;;;;;;;;;10.00;9.00;;;;;12.58;73.20;-19547.56;4872155;29;45406;-87
2023/01/30 14:30:43;;;;;;;;;12.00;10.00;;;;;12.59;72.81;-19547.97;4830488;29;47520;-87
2023/01/30 14:33:18;;;;;;;;;8.00;8.00;;;;;12.57;73.24;-19547.28;4855999;29;45459;-87
2023/01/30 14:35:45;;;;;;;;;18.00;16.00;;;;;12.27;73.38;-19539.50;4861081;29;45525;-88
2023/01/30 14:38:16;;;;;;;;;10.00;10.00;;;;;12.40;73.21;-19542.97;4860452;29;45990;-87
2023/01/30 14:41:08;;;;;;;;;12.33;10.67;;;;;12.61;73.46;-19548.38;4877268;29;45564;-88
2023/01/30 14:43:35;;;;;;;;;8.67;8.67;;;;;12.63;73.40;-19548.91;4862147;29;46137;-89
2023/01/30 14:46:17;;;;;;;;;10.33;10.33;;;;;12.19;73.43;-19537.34;4876560;29;45459;-87
2023/01/30 14:49:04;;;;;;;;;9.67;7.00;;;;;12.59;73.23;-19547.84;4865357;29;45945;-86
2023/01/30 14:51:43;;;;;;;;;11.00;11.00;;;;;12.47;73.25;-19544.72;4873777;29;45467;-86
2023/01/30 14:54:11;;;;;;;;;11.33;10.33;;;;;12.68;73.09;-19550.25;4867536;29;45496;-87
2023/01/30 14:57:00;;;;;;;;;29.67;25.67;;;;;12.56;73.32;-19547.03;4877584;29;45562;-87
2023/01/30 14:59:25;;;;;;;;;14.00;13.00;;;;;12.72;73.07;-19551.19;4856108;29;45530;-85
2023/01/30 15:02:12;;;;;;;;;34.00;31.67;;;;;12.74;73.59;-19551.75;4860556;29;48006;-89
2023/01/30 15:04:43;;;;;;;;;21.33;21.00;;;;;12.80;73.27;-19553.47;4873438;29;45835;-89
2023/01/30 15:07:11;;;;;;;;;60.75;47.75;;;;;12.81;72.66;-19553.75;4883838;29;45451;-89
2023/01/30 15:09:42;;;;;;;;;43.25;34.25;;;;;12.85;72.88;-19554.69;4879092;29;45516;-88
2023/01/30 15:12:26;;;;;;;;;68.75;55.00;;;;;12.50;72.88;-19545.53;4873772;29;46498;-88
2023/01/30 15:15:18;;;;;;;;;60.75;46.50;;;;;12.86;72.47;-19554.97;4863930;29;45407;-89
2023/01/30 15:18:10;;;;;;;;;51.25;42.50;;;;;12.91;72.15;-19556.19;4860982;29;45855;-88
2023/01/30 15:21:10;;;;;;;;;55.50;42.50;;;;;12.94;72.26;-19556.97;4852051;29;45628;-88
2023/01/30 15:24:07;;;;;;;;;53.00;43.00;;;;;12.94;72.37;-19557.13;4799685;29;46152;-87
2023/01/30 15:26:53;;;;;;;;;34.33;31.67;;;;;12.98;71.92;-19558.06;4781318;29;46206;-87
2023/01/30 15:29:37;;;;;;;;;26.00;23.33;;;;;12.98;71.70;-19558.19;4800556;29;45942;-88
2023/01/30 15:32:23;;;;;;;;;24.00;21.00;;;;;12.99;71.83;-19558.31;4796101;29;45805;-88
2023/01/30 15:35:19;;;;;;;;;25.33;22.67;;;;;12.93;71.61;-19556.72;4806367;29;46515;-88
2023/01/30 15:37:44;;;;;;;;;23.00;21.00;;;;;13.00;71.55;-19558.72;4822657;29;45832;-87
2023/01/30 15:40:19;;;;;;;;;12.67;10.00;;;;;12.99;71.27;-19558.31;4797822;29;45517;-87
2023/01/30 15:42:45;;;;;;;;;16.33;13.67;;;;;12.98;71.44;-19558.19;4804454;29;45505;-88
2023/01/30 15:45:35;;;;;;;;;18.33;17.33;;;;;12.85;71.81;-19554.84;4803902;29;45637;-87
2023/01/30 15:48:37;;;;;;;;;25.33;22.33;;;;;12.99;71.61;-19558.31;4803297;29;45588;-88
2023/01/30 15:51:03;;;;;;;;;13.00;13.00;;;;;12.74;71.20;-19551.88;4803620;29;45398;-86
2023/01/30 15:53:33;;;;;;;;;16.00;14.00;;;;;12.75;70.31;-19552.13;4789181;29;45859;-85
2023/01/30 15:56:08;;;;;;;;;16.33;12.67;;;;;12.89;70.57;-19555.78;4803658;29;46080;-89
2023/01/30 15:58:39;;;;;;;;;14.00;10.00;;;;;12.65;70.17;-19549.59;4820114;29;45455;-88
2023/01/30 16:01:05;;;;;;;;;10.67;10.33;;;;;12.95;70.45;-19557.38;4878445;29;45525;-86
2023/01/30 16:03:37;;;;;;;;;7.67;6.33;;;;;12.73;70.10;-19551.47;4878870;29;45820;-87
2023/01/30 16:06:03;;;;;;;;;6.00;6.00;;;;;12.91;69.64;-19556.31;4867968;29;47984;-86
2023/01/30 16:08:34;;;;;;;;;5.67;3.67;;;;;12.88;68.75;-19555.50;4884887;29;45533;-86
2023/01/30 16:11:00;;;;;;;;;5.00;4.00;;;;;12.68;68.74;-19550.38;4880006;29;45374;-86
2023/01/30 16:13:27;;;;;;;;;5.67;2.00;;;;;12.79;68.10;-19553.09;4867711;29;45785;-86
2023/01/30 16:15:56;;;;;;;;;3.00;3.00;;;;;12.45;66.86;-19544.34;4880091;29;46584;-87
2023/01/30 16:18:34;;;;;;;;;4.00;2.00;;;;;12.69;66.49;-19550.53;4880004;29;45338;-86
2023/01/30 16:21:08;;;;;;;;;4.00;4.00;;;;;12.62;67.30;-19548.78;4880017;29;45762;-86
2023/01/30 16:23:39;;;;;;;;;4.67;3.00;;;;;12.57;66.25;-19547.28;4850012;29;45549;-86
2023/01/30 16:26:16;;;;;;;;;3.67;3.00;;;;;12.33;66.06;-19540.97;4880173;29;45466;-86
2023/01/30 16:28:42;;;;;;;;;5.67;5.00;;;;;12.25;65.55;-19538.94;4879981;29;45500;-86
2023/01/30 16:31:09;;;;;;;;;7.00;7.00;;;;;12.36;65.64;-19541.91;4861742;29;45485;-86
2023/01/30 16:33:36;;;;;;;;;10.00;8.33;;;;;12.13;65.68;-19535.84;4869772;29;45686;-86
2023/01/30 16:36:02;;;;;;;;;5.00;5.00;;;;;12.22;65.49;-19538.13;4879735;29;45900;-86
2023/01/30 16:38:38;;;;;;;;;8.00;5.00;;;;;12.16;65.86;-19536.53;4879955;29;45508;-86
2023/01/30 16:41:04;;;;;;;;;5.67;5.00;;;;;11.93;65.95;-19530.47;4880028;29;45585;-86
2023/01/30 16:43:32;;;;;;;;;4.67;4.33;;;;;12.05;65.18;-19531.75;4875801;29;45612;-86
2023/01/30 16:46:40;;;;;;;;;11.33;11.00;;;;;11.36;65.63;-19513.56;4879860;29;46402;-88
2023/01/30 16:49:16;;;;;;;;;20.33;16.67;;;;;11.95;65.67;-19529.06;4879473;29;45514;-88
2023/01/30 16:51:42;;;;;;;;;6.33;2.00;;;;;11.89;66.10;-19527.56;4880014;29;45785;-88
2023/01/30 16:54:24;;;;;;;;;17.00;15.00;;;;;11.39;66.12;-19514.50;4870043;29;45793;-88
2023/01/30 16:56:56;;;;;;;;;16.33;13.33;;;;;11.43;66.07;-19515.31;4879446;29;46441;-89
2023/01/30 16:59:31;;;;;;;;;18.67;14.00;;;;;11.51;66.33;-19517.59;4879340;29;45467;-87
2023/01/30 17:01:57;;;;;;;;;20.00;16.00;;;;;11.71;66.39;-19522.72;4879770;29;45767;-90
2023/01/30 17:04:27;;;;;;;;;30.67;27.33;;;;;11.68;66.47;-19522.03;4880317;29;45421;-90
2023/01/30 17:06:58;;;;;;;;;33.00;29.67;;;;;11.35;66.61;-19513.44;4882427;29;45467;-87
2023/01/30 17:09:41;;;;;;;;;33.75;31.75;;;;;11.43;66.64;-19515.31;4879572;29;45346;-89
2023/01/30 17:12:35;;;;;;;;;46.00;36.50;;;;;11.56;66.56;-19518.81;4878297;29;45964;-88
2023/01/30 17:15:21;;;;;;;;;40.25;34.25;;;;;11.17;66.01;-19508.56;4877291;29;45781;-91
2023/01/30 17:17:46;;;;;;;;;27.33;25.00;;;;;11.25;66.59;-19510.72;4839317;29;46255;-89
2023/01/30 17:20:16;;;;;;;;;24.00;23.00;;;;;11.20;66.68;-19509.38;4866572;29;45959;-85
2023/01/30 17:22:44;;;;;;;;;22.00;21.00;;;;;11.22;66.76;-19509.94;4879411;29;45410;-85
2023/01/30 17:25:41;;;;;;;;;24.00;20.00;;;;;11.30;66.54;-19512.06;4879245;29;45623;-85
2023/01/30 17:28:16;;;;;;;;;18.00;18.00;;;;;11.20;66.41;-19178.31;4879013;29;45938;-86
2023/01/30 17:30:41;;;;;;;;;23.00;21.67;;;;;10.80;66.85;-19167.75;4878870;29;45507;-85
2023/01/30 17:33:06;;;;;;;;;30.67;28.33;;;;;11.17;66.53;-19177.50;4878600;29;45618;-85
2023/01/30 17:35:32;;;;;;;;;48.25;39.25;;;;;11.16;66.75;-19177.13;4878426;29;45857;-85
2023/01/30 17:37:57;;;;;;;;;50.25;40.50;;;;;10.91;66.28;-19170.78;4877904;29;46662;-86
2023/01/30 17:40:35;;;;;;;;;52.00;41.75;;;;;11.08;66.73;-19175.00;4878371;29;45583;-86
2023/01/30 17:43:01;;;;;;;;;63.75;48.75;;;;;10.96;66.63;-19172.09;4878730;29;45486;-85
2023/01/30 17:45:26;;;;;;;;;55.75;41.50;;;;;11.03;66.76;-19173.81;4877969;29;45450;-85
2023/01/30 17:47:52;;;;;;;;;47.00;36.75;;;;;10.96;66.64;-19172.09;4878641;29;46008;-84
2023/01/30 17:50:17;;;;;;;;;51.50;37.25;;;;;10.98;66.22;-19172.50;4875807;29;45606;-85
2023/01/30 17:52:43;;;;;;;;;35.67;31.00;;;;;10.61;66.18;-18831.94;4863055;29;45886;-85
2023/01/30 17:55:11;;;;;;;;;39.33;30.67;;;;;10.74;66.47;-18835.28;4878032;29;45464;-85
2023/01/30 17:57:37;;;;;;;;;30.33;30.33;;;;;10.88;66.32;-18838.78;4878702;29;46497;-85
2023/01/30 18:00:04;;;;;;;;;33.33;30.33;;;;;10.85;66.41;-18838.13;4878610;29;45425;-85
2023/01/30 18:02:31;;;;;;;;;27.67;26.33;;;;;10.42;66.34;-18827.13;4878600;29;45674;-85
2023/01/30 18:04:56;;;;;;;;;28.67;26.33;;;;;10.77;66.52;-18836.19;4866243;29;45731;-85
2023/01/30 18:07:25;;;;;;;;;23.33;19.67;;;;;10.73;66.68;-18835.03;4882553;29;45443;-85
2023/01/30 18:09:50;;;;;;;;;21.00;16.33;;;;;10.63;66.79;-18832.44;4878358;29;45469;-85
2023/01/30 18:12:15;;;;;;;;;22.67;20.33;;;;;10.68;66.63;-18833.88;4877938;29;45463;-85
2023/01/30 18:14:41;;;;;;;;;38.00;33.50;;;;;10.64;66.60;-18501.72;4877842;29;45474;-85
2023/01/30 18:17:06;;;;;;;;;35.00;25.75;;;;;10.54;66.46;-18499.44;4877917;29;46204;-86
2023/01/30 18:19:31;;;;;;;;;36.00;32.50;;;;;10.57;66.50;-18500.22;4878572;29;45836;-85
2023/01/30 18:21:57;;;;;;;;;40.75;34.00;;;;;10.45;66.65;-18497.16;4878207;29;45700;-85
2023/01/30 18:24:23;;;;;;;;;34.75;31.75;;;;;10.53;66.53;-18499.19;4878399;29;45535;-86
2023/01/30 18:26:48;;;;;;;;;34.75;29.25;;;;;10.45;66.34;-18497.03;4874920;29;46551;-85
2023/01/30 18:29:14;;;;;;;;;34.75;31.00;;;;;10.40;66.38;-18495.91;4871652;29;45890;-85
2023/01/30 18:31:39;;;;;;;;;39.00;32.75;;;;;10.41;66.51;-18165.28;4879250;29;45447;-86
2023/01/30 18:34:06;;;;;;;;;33.00;29.00;;;;;10.39;66.87;-18495.66;4855501;29;45501;-87
2023/01/30 18:36:34;;;;;;;;;42.25;34.50;;;;;10.37;66.56;-18495.00;4877678;29;46481;-86
2023/01/30 18:39:00;;;;;;;;;36.25;32.25;;;;;10.00;66.54;-18485.88;4859957;29;45980;-87
2023/01/30 18:41:26;;;;;;;;;43.00;35.50;;;;;10.26;66.74;-18161.69;4876173;29;45568;-86
2023/01/30 18:43:56;;;;;;;;;46.25;37.00;;;;;9.91;66.42;-18153.13;4876606;29;45861;-87
2023/01/30 18:46:22;;;;;;;;;42.75;37.00;;;;;9.99;66.72;-18154.97;4877519;29;46576;-87
2023/01/30 18:48:48;;;;;;;;;42.50;36.25;;;;;10.16;66.70;-18159.19;4856013;29;46077;-87
2023/01/30 18:51:17;;;;;;;;;47.50;37.00;;;;;10.12;66.92;-18158.19;4875984;29;45413;-86
2023/01/30 18:53:45;;;;;;;;;38.50;34.00;;;;;10.08;66.86;-18157.34;4866216;29;45477;-86
2023/01/30 18:56:12;;;;;;;;;36.25;34.50;;;;;9.96;66.98;-18154.22;4873377;29;47494;-86
2023/01/30 18:58:38;;;;;;;;;51.00;39.75;;;;;9.80;66.73;-17819.91;4874307;29;45557;-87
2023/01/30 19:01:09;;;;;;;;;39.75;35.75;;;;;9.67;66.95;-18147.28;4878303;29;45639;-88
2023/01/30 19:03:35;;;;;;;;;49.75;39.50;;;;;9.42;66.54;-17810.94;4866231;29;45650;-86
2023/01/30 19:06:00;;;;;;;;;46.75;38.50;;;;;9.96;66.88;-17823.56;4880065;29;47061;-86
2023/01/30 19:08:26;;;;;;;;;48.50;39.25;;;;;9.55;66.89;-17813.84;4882393;29;45462;-87
2023/01/30 19:10:51;;;;;;;;;51.25;40.50;;;;;9.91;67.06;-17822.59;4882079;29;46201;-88
2023/01/30 19:13:32;;;;;;;;;47.00;38.75;;;;;9.90;67.64;-18153.00;4868441;29;45334;-86
2023/01/30 19:15:59;;;;;;;;;48.75;38.25;;;;;9.60;67.15;-18145.53;4868193;29;47698;-87
2023/01/30 19:18:27;;;;;;;;;50.00;42.00;;;;;9.83;67.20;-18151.13;4877149;29;46690;-86
2023/01/30 19:20:53;;;;;;;;;47.50;40.25;;;;;9.30;67.21;-18138.47;4878680;29;45909;-87
2023/01/30 19:23:18;;;;;;;;;50.00;41.00;;;;;9.69;67.67;-18147.78;4878145;29;45736;-85
2023/01/30 19:25:51;;;;;;;;;46.00;38.00;;;;;9.77;67.69;-18149.63;4862444;29;48341;-85
2023/01/30 19:28:17;;;;;;;;;55.75;44.00;;;;;9.53;67.63;-18143.94;4868757;29;45496;-87
2023/01/30 19:30:42;;;;;;;;;50.50;38.25;;;;;9.60;67.58;-18145.53;4871768;29;45392;-86
2023/01/30 19:33:07;;;;;;;;;47.50;39.75;;;;;9.74;67.88;-18149.03;4877927;29;45577;-82
2023/01/30 19:35:33;;;;;;;;;39.50;33.25;;;;;9.70;67.58;-18148.16;4876874;29;45964;-84
2023/01/30 19:37:59;;;;;;;;;48.75;36.75;;;;;9.67;67.67;-17816.88;4874037;29;45540;-84
2023/01/30 19:40:24;;;;;;;;;45.00;37.50;;;;;9.60;67.43;-17815.06;4881301;29;45599;-85
2023/01/30 19:42:49;;;;;;;;;50.25;40.25;;;;;9.42;67.53;-18141.31;4874283;29;47046;-85
2023/01/30 19:45:15;;;;;;;;;17.25;15.25;;;;;9.34;67.48;-17809.00;4879000;29;45598;-83
2023/01/30 19:47:40;;;;;;;;;55.50;45.00;;;;;9.58;67.58;-17814.69;4879134;29;45505;-83
2023/01/30 19:50:06;;;;;;;;;53.00;43.00;;;;;9.36;67.55;-17809.34;4876814;29;45706;-83
2023/01/30 19:52:32;;;;;;;;;52.75;44.00;;;;;9.24;67.93;-17806.69;4879027;29;45847;-83
2023/01/30 19:54:57;;;;;;;;;18.25;14.50;;;;;9.46;67.75;-17811.91;4878814;29;46759;-83
2023/01/30 19:57:22;;;;;;;;;52.75;43.50;;;;;9.43;67.83;-17811.19;4882809;29;45726;-83
2023/01/30 19:59:48;;;;;;;;;53.50;43.00;;;;;9.39;67.51;-17810.22;4879519;29;45713;-83
2023/01/30 20:02:13;;;;;;;;;53.00;44.50;;;;;9.22;67.97;-17806.06;4878221;29;45603;-83
2023/01/30 20:04:39;;;;;;;;;45.75;37.50;;;;;9.36;67.79;-17809.34;4877974;29;45885;-83
2023/01/30 20:07:04;;;;;;;;;54.00;40.75;;;;;9.26;67.83;-17807.16;4880956;29;45533;-83
2023/01/30 20:09:30;;;;;;;;;51.25;41.50;;;;;9.27;68.00;-17477.09;4877675;29;47682;-83
2023/01/30 20:11:55;;;;;;;;;50.25;39.25;;;;;9.25;68.01;-17476.59;4891778;29;45731;-83
2023/01/30 20:14:21;;;;;;;;;50.75;43.50;;;;;8.96;68.01;-17469.72;4897939;28;45670;-84
2023/01/30 20:16:46;;;;;;;;;51.75;42.75;;;;;9.15;67.95;-17474.22;4894039;29;45488;-84
2023/01/30 20:19:14;;;;;;;;;53.00;42.25;;;;;9.17;67.97;-17474.69;4895220;29;45544;-83
2023/01/30 20:21:40;;;;;;;;;54.50;44.00;;;;;9.06;67.56;-17472.09;4896066;29;45624;-84
2023/01/30 20:24:06;;;;;;;;;55.25;43.00;;;;;8.75;68.08;-17464.84;4895900;28;45936;-83
2023/01/30 20:26:34;;;;;;;;;50.50;41.75;;;;;9.07;67.74;-17472.44;4894356;29;45437;-83
2023/01/30 20:29:00;;;;;;;;;59.25;45.50;;;;;9.04;67.62;-17141.50;4894919;29;45670;-84
2023/01/30 20:31:27;;;;;;;;;59.75;45.25;;;;;9.01;68.19;-17140.81;4896981;28;45517;-84
2023/01/30 20:33:56;;;;;;;;;55.75;44.00;;;;;8.91;67.66;-17138.47;4894286;28;47401;-83
2023/01/30 20:36:23;;;;;;;;;64.50;50.50;;;;;8.78;67.90;-17135.44;4892677;29;45649;-88
2023/01/30 20:38:49;;;;;;;;;64.50;48.25;;;;;8.91;67.89;-17138.34;4893035;28;45534;-89
2023/01/30 20:41:17;;;;;;;;;61.25;50.00;;;;;8.89;67.98;-17138.00;4903874;28;45647;-85
2023/01/30 20:43:44;;;;;;;;;63.75;50.50;;;;;8.76;68.16;-17135.09;4895682;29;46285;-85
2023/01/30 20:46:11;;;;;;;;;59.50;47.75;;;;;8.86;68.10;-17137.31;4895656;29;45612;-86
2023/01/30 20:48:38;;;;;;;;;56.25;45.25;;;;;8.76;67.84;-17135.00;4896825;28;45724;-85
2023/01/30 20:51:09;;;;;;;;;55.75;44.75;;;;;8.80;68.19;-17135.91;4893841;28;45546;-84
2023/01/30 20:53:35;;;;;;;;;54.50;44.75;;;;;8.77;67.98;-16805.22;4893810;29;46362;-84
2023/01/30 20:56:01;;;;;;;;;55.25;44.00;;;;;8.75;68.05;-16804.75;4894705;29;46076;-84
2023/01/30 20:58:28;;;;;;;;;56.75;44.25;;;;;8.68;68.04;-16803.06;4894494;28;45433;-84
2023/01/30 21:18:24;;;;;;;;;57.75;47.00;;;;;8.50;67.93;-16469.19;4863184;29;44856;-96
2023/01/30 21:25:06;;;;;;;;;50.00;39.50;;;;;6.56;67.39;-16427.16;4819465;29;45375;-95
2023/01/30 21:31:07;;;;;;;;;64.50;48.75;;;;;6.45;67.65;-16424.69;4750946;29;45762;-96
2023/01/30 21:36:40;;;;;;;;;54.50;43.50;;;;;6.70;67.77;-16101.16;4814285;23;46036;-91
2023/01/30 21:44:39;;;;;;;;;53.00;43.25;;;;;7.76;67.74;-16123.47;4863852;29;45551;-92
2023/01/30 21:47:06;;;;;;;;;53.75;45.25;;;;;8.19;68.02;-16132.66;4866192;29;45526;-96
2023/01/30 21:49:33;;;;;;;;;52.75;41.50;;;;;8.17;68.34;-16132.13;4873986;29;45222;-95
2023/01/30 21:51:58;;;;;;;;;57.25;46.25;;;;;8.16;68.28;-16131.91;4869556;29;45471;-96
2023/01/30 21:54:24;;;;;;;;;52.75;44.50;;;;;7.88;68.30;-16125.97;5199607;23;45832;-96
2023/01/30 21:56:49;;;;;;;;;55.50;45.75;;;;;8.14;67.91;-16131.59;4882939;29;45422;-92
2023/01/30 21:59:15;;;;;;;;;59.00;47.75;;;;;8.14;67.90;-16131.47;4882363;29;45468;-94
2023/01/30 22:01:41;;;;;;;;;58.25;47.50;;;;;8.11;68.15;-16130.81;4882620;29;45442;-94
2023/01/30 22:04:12;;;;;;;;;57.75;45.25;;;;;7.41;68.52;-16116.13;4895817;29;45380;-96
2023/01/30 22:06:39;;;;;;;;;58.75;45.25;;;;;8.09;68.34;-16130.41;4902034;29;44755;-95
2023/01/30 22:09:07;;;;;;;;;56.75;43.50;;;;;7.26;68.43;-16112.97;4883092;29;46118;-96
2023/01/30 22:11:34;;;;;;;;;46.50;38.25;;;;;7.65;68.18;-16121.09;4938696;23;45475;-94